Time;durP1;ratioP1;P1;durP2;ratioP2;P2;SDS_P1;SDS_P2;PMS_P1;PMS_P2;Temp;Humidity;BMP_temperature;BMP_pressure;BME280_temperature;BME280_humidity;BME280_pressure;Samples;Min_cycle;Max_cycle;Signal;HPM_P1;HPM_P2
2024/03/25 00:00:27;;;;;;;16.30;7.50;;;;;;;5.06;100.00;98866.65;214755;1288;140113;-84
2024/03/25 00:05:27;;;;;;;13.20;7.50;;;;;;;5.07;100.00;98866.75;214510;1286;139132;-86
2024/03/25 00:10:28;;;;;;;16.90;8.50;;;;;;;5.08;100.00;98861.84;214083;1288;139580;-84
2024/03/25 00:15:28;;;;;;;13.50;7.20;;;;;;;5.07;100.00;98858.86;214609;1288;140152;-85
2024/03/25 00:20:29;;;;;;;15.30;7.70;;;;;;;5.09;100.00;98858.27;216347;1288;139655;-87
2024/03/25 00:25:29;;;;;;;15.50;7.80;;;;;;;5.09;100.00;98861.85;214613;1285;138666;-83
2024/03/25 00:30:30;;;;;;;15.40;7.80;;;;;;;5.11;100.00;98858.98;214086;1288;139969;-83
2024/03/25 00:35:30;;;;;;;15.90;8.00;;;;;;;5.12;100.00;98855.71;214375;1283;139552;-87
2024/03/25 00:40:30;;;;;;;15.50;8.00;;;;;;;5.13;100.00;98856.34;214071;1282;140187;-84
2024/03/25 00:45:31;;;;;;;13.40;7.00;;;;;;;5.13;100.00;98851.52;214518;1287;139383;-88
2024/03/25 00:50:32;;;;;;;17.50;7.80;;;;;;;5.14;100.00;98842.70;213892;1283;139626;-84
2024/03/25 00:55:32;;;;;;;16.20;7.90;;;;;;;5.14;100.00;98840.45;214509;1282;138907;-85
2024/03/25 01:00:33;;;;;;;17.30;7.80;;;;;;;5.14;100.00;98841.16;214133;1285;139810;-85
2024/03/25 01:05:33;;;;;;;16.10;6.90;;;;;;;5.13;100.00;98833.20;214456;1283;138735;-86
2024/03/25 01:10:34;;;;;;;15.00;7.60;;;;;;;5.12;100.00;98833.83;214135;1285;140150;-84
2024/03/25 01:15:34;;;;;;;14.10;6.70;;;;;;;5.11;100.00;98833.27;214542;1283;138877;-84
2024/03/25 01:20:34;;;;;;;19.00;7.10;;;;;;;5.11;100.00;98832.02;216432;1286;139916;-86
2024/03/25 01:25:35;;;;;;;15.10;7.30;;;;;;;5.11;100.00;98825.16;215422;1285;139053;-83
2024/03/25 01:30:35;;;;;;;12.70;7.00;;;;;;;5.12;100.00;98825.10;214782;1286;140569;-83
2024/03/25 01:35:36;;;;;;;18.30;7.20;;;;;;;5.14;100.00;98828.70;215234;1282;138585;-84
2024/03/25 01:40:37;;;;;;;13.30;6.90;;;;;;;5.15;100.00;98824.56;214822;1288;140206;-87
2024/03/25 01:45:37;;;;;;;10.90;6.10;;;;;;;5.15;100.00;98821.46;215222;1283;139051;-83
2024/03/25 01:50:43;;;;;;;12.70;6.10;;;;;;;5.16;100.00;98822.40;214211;1283;141765;-84
2024/03/25 01:55:44;;;;;;;13.50;6.70;;;;;;;5.17;100.00;98818.98;214367;1285;138734;-84
2024/03/25 02:00:45;;;;;;;12.30;5.90;;;;;;;5.17;100.00;98823.10;213873;1288;139955;-82
2024/03/25 02:05:45;;;;;;;14.70;7.20;;;;;;;5.18;100.00;98815.95;214424;1289;99836;-83
2024/03/25 02:10:46;;;;;;;11.70;5.80;;;;;;;5.18;100.00;98817.58;213946;1286;139859;-86
2024/03/25 02:15:49;;;;;;;12.30;6.20;;;;;;;5.17;100.00;98817.80;214303;1286;138718;-83
2024/03/25 02:20:50;;;;;;;14.30;6.40;;;;;;;5.17;100.00;98814.38;215374;1282;140140;-84
2024/03/25 02:25:51;;;;;;;13.40;6.20;;;;;;;5.18;100.00;98816.64;215476;1283;138658;-83
2024/03/25 02:30:52;;;;;;;12.10;5.70;;;;;;;5.18;100.00;98817.58;213797;1282;140157;-84
2024/03/25 02:35:52;;;;;;;11.60;5.60;;;;;;;5.18;100.00;98826.15;214462;1286;99334;-83
2024/03/25 02:40:53;;;;;;;12.20;6.20;;;;;;;5.18;100.00;98824.36;213882;1285;139829;-83
2024/03/25 02:45:54;;;;;;;13.10;6.50;;;;;;;5.16;100.00;98827.00;214417;1286;138834;-85
2024/03/25 02:50:54;;;;;;;11.70;6.90;;;;;;;5.13;100.00;98833.74;213842;1285;139816;-85
2024/03/25 02:55:54;;;;;;;12.50;6.70;;;;;;;5.10;100.00;98832.02;214616;1283;138884;-85
2024/03/25 03:00:55;;;;;;;13.20;7.00;;;;;;;5.09;100.00;98836.99;213975;1287;140207;-87
2024/03/25 03:05:55;;;;;;;12.00;6.70;;;;;;;5.05;100.00;98834.70;214627;1282;99964;-88
2024/03/25 03:10:56;;;;;;;15.40;8.40;;;;;;;5.00;100.00;98845.33;214003;1283;139516;-86
2024/03/25 03:15:56;;;;;;;14.80;7.60;;;;;;;4.97;100.00;98845.31;214543;1283;138996;-85
2024/03/25 03:20:57;;;;;;;11.90;7.00;;;;;;;4.94;100.00;98845.60;214507;1286;139892;-84
2024/03/25 03:25:59;;;;;;;12.60;7.30;;;;;;;4.94;100.00;98847.63;215342;1282;138828;-87
2024/03/25 03:30:59;;;;;;;14.40;7.80;;;;;;;4.93;100.00;98849.80;213634;1288;139958;-85
2024/03/25 03:36:00;;;;;;;13.70;8.30;;;;;;;4.91;100.00;98851.27;214470;1286;102145;-88
2024/03/25 03:41:06;;;;;;;13.90;7.90;;;;;;;4.89;100.00;98855.06;213988;1285;140599;-85
2024/03/25 03:46:07;;;;;;;17.10;8.40;;;;;;;4.84;100.00;98859.36;214408;1283;140986;-85
2024/03/25 03:51:08;;;;;;;15.60;8.30;;;;;;;4.82;100.00;98862.72;214015;1288;139998;-86
2024/03/25 03:56:09;;;;;;;14.60;8.60;;;;;;;4.83;100.00;98864.59;214504;1282;138787;-87
2024/03/25 04:01:19;;;;;;;13.60;8.50;;;;;;;4.83;100.00;98870.35;214020;1287;139746;-85
2024/03/25 04:06:19;;;;;;;16.90;8.00;;;;;;;4.83;100.00;98870.98;214667;1283;113446;-85
2024/03/25 04:11:20;;;;;;;16.30;8.80;;;;;;;4.84;100.00;98867.09;214014;1286;139891;-84
2024/03/25 04:16:22;;;;;;;14.30;7.80;;;;;;;4.85;100.00;98867.73;214380;1287;138922;-84
2024/03/25 04:21:24;;;;;;;16.30;8.50;;;;;;;4.86;100.00;98875.52;214009;1283;139362;-83
2024/03/25 04:26:24;;;;;;;15.70;8.90;;;;;;;4.84;100.00;98878.08;215601;1285;138739;-84
2024/03/25 04:31:24;;;;;;;16.60;8.60;;;;;;;4.82;100.00;98883.98;213773;1285;140299;-84
2024/03/25 04:36:25;;;;;;;17.30;9.80;;;;;;;4.83;100.00;98883.51;214634;1286;113000;-84
2024/03/25 04:41:26;;;;;;;17.10;9.50;;;;;;;4.81;100.00;98893.94;213985;1282;150576;-83
2024/03/25 04:46:27;;;;;;;17.80;9.80;;;;;;;4.82;100.00;98900.08;214524;1282;138564;-85
2024/03/25 04:51:27;;;;;;;16.70;9.50;;;;;;;4.82;100.00;98903.83;214026;1282;139966;-85
2024/03/25 04:56:30;;;;;;;16.90;9.20;;;;;;;4.82;100.00;98908.11;214495;1282;139034;-87
2024/03/25 05:01:31;;;;;;;16.60;9.40;;;;;;;4.81;100.00;98913.00;214095;1285;139728;-87
2024/03/25 05:06:33;;;;;;;17.60;8.60;;;;;;;4.82;100.00;98914.80;214627;1281;99414;-86
2024/03/25 05:11:34;;;;;;;17.50;9.50;;;;;;;4.83;100.00;98922.05;213998;1283;139770;-86
2024/03/25 05:16:34;;;;;;;16.30;8.70;;;;;;;4.83;100.00;98927.89;214859;1284;138550;-86
2024/03/25 05:21:35;;;;;;;14.20;8.00;;;;;;;4.84;100.00;98932.59;214721;1285;140497;-84
2024/03/25 05:26:35;;;;;;;15.40;8.40;;;;;;;4.85;100.00;98937.97;215384;1284;138913;-85
2024/03/25 05:31:36;;;;;;;13.10;7.70;;;;;;;4.86;100.00;98942.65;214790;1282;139712;-85
2024/03/25 05:36:37;;;;;;;14.20;7.60;;;;;;;4.87;100.00;98946.64;215043;1282;99294;-84
2024/03/25 05:41:37;;;;;;;14.50;7.50;;;;;;;4.89;100.00;98951.92;215070;1285;139969;-84
2024/03/25 05:46:39;;;;;;;14.40;7.70;;;;;;;4.91;100.00;98956.02;215241;1282;138752;-85
2024/03/25 05:51:39;;;;;;;13.70;7.30;;;;;;;4.95;100.00;98960.63;214343;1282;139842;-86
2024/03/25 05:56:40;;;;;;;12.40;7.00;;;;;;;4.98;100.00;98970.80;215118;1282;138739;-85
2024/03/25 06:01:40;;;;;;;15.30;7.40;;;;;;;5.01;100.00;98975.04;214495;1282;139535;-86
2024/03/25 06:06:41;;;;;;;11.40;6.00;;;;;;;5.03;100.00;98981.20;214598;1282;113417;-85
2024/03/25 06:11:42;;;;;;;23.40;12.10;;;;;;;5.06;100.00;98983.95;213900;1287;139485;-85
2024/03/25 06:16:43;;;;;;;15.60;8.30;;;;;;;5.08;100.00;98988.57;214564;1282;138693;-85
2024/03/25 06:21:46;;;;;;;11.10;6.10;;;;;;;5.12;100.00;98992.59;214634;1282;139598;-85
2024/03/25 06:26:46;;;;;;;14.90;8.40;;;;;;;5.15;100.00;98999.02;215113;1282;138805;-85
2024/03/25 06:37:08;;;;;;;15.50;6.30;;;;;;;5.24;100.00;99013.42;215567;1283;139243;-85
2024/03/25 06:42:09;;;;;;;13.20;7.30;;;;;;;5.26;100.00;99018.36;215601;1281;139703;-85
2024/03/25 06:47:09;;;;;;;17.30;9.30;;;;;;;5.28;100.00;99020.95;215880;1283;138960;-85
2024/03/25 06:52:10;;;;;;;15.00;8.70;;;;;;;5.33;100.00;99028.88;214942;1282;140055;-85
2024/03/25 06:57:10;;;;;;;20.70;11.10;;;;;;;5.37;100.00;99037.02;214878;1286;138725;-89
2024/03/25 07:02:11;;;;;;;17.90;10.40;;;;;;;5.39;100.00;99045.61;214123;1282;140553;-89
2024/03/25 07:07:11;;;;;;;22.20;11.50;;;;;;;5.45;100.00;99049.32;214518;1284;138865;-90
2024/03/25 07:12:12;;;;;;;20.40;11.70;;;;;;;5.54;100.00;99056.03;214061;1282;139655;-88
2024/03/25 07:17:12;;;;;;;23.00;12.50;;;;;;;5.63;100.00;99065.45;214558;1282;138710;-87
2024/03/25 07:22:13;;;;;;;23.80;11.60;;;;;;;5.73;100.00;99067.10;214808;1286;140242;-88
2024/03/25 07:27:13;;;;;;;24.40;12.70;;;;;;;5.83;100.00;99070.58;215258;1282;139015;-87
2024/03/25 07:32:14;;;;;;;24.20;13.80;;;;;;;5.92;100.00;99078.92;215027;1282;139821;-87
2024/03/25 07:37:15;;;;;;;27.30;15.40;;;;;;;6.04;100.00;99083.05;214903;1283;138950;-87
2024/03/25 07:42:15;;;;;;;27.50;15.20;;;;;;;6.17;100.00;99091.20;214404;1285;139899;-87
2024/03/25 07:47:16;;;;;;;23.50;13.30;;;;;;;6.26;100.00;99094.38;214074;1282;138716;-88
2024/03/25 07:52:16;;;;;;;21.70;13.30;;;;;;;6.36;100.00;99104.83;213855;1282;139723;-87
2024/03/25 07:57:20;;;;;;;26.00;12.60;;;;;;;6.43;100.00;99111.90;214296;1282;139008;-87
2024/03/25 08:02:21;;;;;;;25.30;14.90;;;;;;;6.48;100.00;99115.44;213588;1282;140097;-87
2024/03/25 08:07:25;;;;;;;27.00;15.20;;;;;;;6.50;100.00;99123.48;214171;1286;138992;-87
2024/03/25 08:12:25;;;;;;;23.50;13.40;;;;;;;6.54;100.00;99130.70;213789;1282;140082;-87
2024/03/25 08:17:26;;;;;;;23.90;13.50;;;;;;;6.56;100.00;99134.71;214340;1285;138691;-88
2024/03/25 08:22:27;;;;;;;25.80;14.70;;;;;;;6.57;100.00;99142.29;213827;1283;139787;-87
2024/03/25 08:27:27;;;;;;;27.60;15.90;;;;;;;6.58;100.00;99149.02;214589;1282;138988;-87
2024/03/25 08:32:29;;;;;;;25.20;14.70;;;;;;;6.62;100.00;99155.36;214098;1287;140436;-87
2024/03/25 08:37:29;;;;;;;20.50;13.20;;;;;;;6.62;100.00;99159.42;214182;1282;138815;-87
2024/03/25 08:42:30;;;;;;;11.00;6.20;;;;;;;6.60;100.00;99164.41;213865;1286;140628;-88
2024/03/25 08:47:31;;;;;;;9.30;5.20;;;;;;;6.55;100.00;99175.77;214399;1283;139203;-89
2024/03/25 08:52:32;;;;;;;10.70;5.50;;;;;;;6.54;100.00;99176.02;213773;1283;140156;-89
2024/03/25 08:57:32;;;;;;;10.30;5.30;;;;;;;6.52;100.00;99178.17;214268;1282;138702;-88
2024/03/25 09:02:33;;;;;;;16.20;8.10;;;;;;;6.55;100.00;99182.02;213710;1282;140559;-88
2024/03/25 09:07:34;;;;;;;13.00;7.20;;;;;;;6.54;100.00;99186.63;214136;1282;138640;-89
2024/03/25 09:12:34;;;;;;;12.80;7.50;;;;;;;6.55;100.00;99186.63;213754;1282;139652;-87
2024/03/25 09:17:38;;;;;;;13.80;7.30;;;;;;;6.56;100.00;99191.40;214014;1282;138681;-87
2024/03/25 09:22:39;;;;;;;15.20;6.40;;;;;;;6.64;100.00;99201.22;213801;1282;139997;-88
2024/03/25 09:27:40;;;;;;;13.60;7.00;;;;;;;6.74;100.00;99209.73;214529;1281;138827;-87
2024/03/25 09:32:41;;;;;;;14.20;7.80;;;;;;;6.83;100.00;99219.70;213929;1286;140010;-88
2024/03/25 09:37:42;;;;;;;12.00;6.50;;;;;;;6.92;100.00;99223.36;214329;1282;138683;-86
2024/03/25 09:42:56;;;;;;;15.70;8.90;;;;;;;7.02;100.00;99231.00;213966;1282;139705;-87
2024/03/25 09:47:58;;;;;;;17.60;10.10;;;;;;;7.18;100.00;99236.25;214287;1282;107589;-88
2024/03/25 09:52:58;;;;;;;20.40;11.40;;;;;;;7.36;100.00;99240.72;213675;1282;140256;-88
2024/03/25 09:58:00;;;;;;;17.40;11.20;;;;;;;7.57;100.00;99245.42;214272;1282;331170;-87
2024/03/25 10:03:00;;;;;;;16.20;9.70;;;;;;;7.70;100.00;99242.27;213867;1286;140346;-87
2024/03/25 10:08:01;;;;;;;17.20;10.70;;;;;;;7.82;100.00;99245.51;214446;1282;138754;-86
2024/03/25 10:13:02;;;;;;;16.10;10.90;;;;;;;7.92;100.00;99251.26;213827;1282;139986;-86
2024/03/25 10:18:02;;;;;;;18.50;12.90;;;;;;;8.01;100.00;99248.38;214486;1282;99315;-86
2024/03/25 10:23:04;;;;;;;20.70;15.40;;;;;;;8.19;100.00;99252.81;213830;1283;139935;-86
2024/03/25 10:28:05;;;;;;;28.20;25.60;;;;;;;8.52;100.00;99248.16;214765;1282;139281;-85
2024/03/25 10:33:06;;;;;;;69.00;64.50;;;;;;;9.13;100.00;99250.38;214539;1288;139794;-86
2024/03/25 10:38:10;;;;;;;107.20;100.90;;;;;;;9.53;100.00;99249.16;214483;1282;139054;-87
2024/03/25 10:43:13;;;;;;;97.00;91.40;;;;;;;9.88;100.00;99254.20;213999;1286;140901;-86
2024/03/25 10:48:29;;;;;;;137.50;129.40;;;;;;;9.99;100.00;99256.51;214468;1282;106761;-85
2024/03/25 10:53:32;;;;;;;120.50;113.70;;;;;;;10.13;100.00;99258.80;214323;1287;223062;-85
2024/03/25 10:58:34;;;;;;;410.50;382.60;;;;;;;10.31;100.00;99260.33;213971;1282;141082;-85
2024/03/25 11:03:35;;;;;;;352.70;330.90;;;;;;;10.83;100.00;99261.19;214276;1282;139942;-85
2024/03/25 11:08:36;;;;;;;547.40;509.00;;;;;;;11.07;100.00;99262.70;213808;1284;141153;-87
2024/03/25 11:13:38;;;;;;;424.70;398.30;;;;;;;11.31;100.00;99264.82;214494;1285;139752;-86
2024/03/25 11:18:38;;;;;;;540.40;502.90;;;;;;;11.38;100.00;99276.54;213927;1282;140785;-86
2024/03/25 11:23:42;;;;;;;676.60;624.00;;;;;;;11.44;100.00;99279.16;214410;1283;139776;-86
2024/03/25 11:28:42;;;;;;;189.90;179.20;;;;;;;11.41;100.00;99282.18;214074;1283;140876;-84
2024/03/25 11:33:42;;;;;;;328.40;307.60;;;;;;;11.37;100.00;99277.73;214783;1283;139520;-87
2024/03/25 11:38:44;;;;;;;259.40;244.00;;;;;;;11.43;100.00;99272.40;213940;1282;140590;-85
2024/03/25 11:43:44;;;;;;;277.70;259.90;;;;;;;11.29;100.00;99277.73;214242;1283;140470;-84
2024/03/25 11:48:45;;;;;;;313.40;292.70;;;;;;;11.11;100.00;99280.98;213900;1285;141054;-86
2024/03/25 11:53:46;;;;;;;372.00;346.40;;;;;;;10.90;100.00;99291.79;214420;1283;140098;-84
2024/03/25 11:58:46;;;;;;;139.30;130.60;;;;;;;10.72;100.00;99295.02;213957;1282;162721;-84
2024/03/25 12:03:47;;;;;;;366.50;342.10;;;;;;;10.56;100.00;99293.48;214330;1286;139922;-84
2024/03/25 12:14:07;;;;;;;316.60;296.50;;;;;;;10.33;100.00;99300.70;214352;1282;139768;-85
2024/03/25 12:19:08;;;;;;;146.90;138.20;;;;;;;10.13;100.00;99315.11;214000;1285;140930;-86
2024/03/25 12:24:08;;;;;;;141.30;133.00;;;;;;;9.93;100.00;99321.70;214686;1282;104515;-86
2024/03/25 12:29:09;;;;;;;92.70;87.10;;;;;;;9.79;100.00;99325.98;213798;1285;141537;-85
2024/03/25 12:34:12;;;;;;;53.90;50.60;;;;;;;9.76;100.00;99331.34;214942;1282;137935;-85
2024/03/25 12:39:18;;;;;;;78.40;73.90;;;;;;;9.64;100.00;99334.51;213908;1282;139913;-85
2024/03/25 12:44:19;;;;;;;56.50;53.00;;;;;;;9.55;100.00;99333.67;214486;1287;139084;-85
2024/03/25 12:49:19;;;;;;;125.40;117.50;;;;;;;9.53;100.00;99333.36;214064;1282;140353;-84
2024/03/25 12:54:20;;;;;;;166.40;155.90;;;;;;;9.61;100.00;99331.00;214614;1284;107344;-83
2024/03/25 12:59:21;;;;;;;142.90;134.40;;;;;;;9.73;100.00;99329.86;214064;1287;141117;-84
2024/03/25 13:04:22;;;;;;;166.10;155.70;;;;;;;9.81;100.00;99329.82;214517;1282;140630;-85
2024/03/25 13:09:22;;;;;;;364.10;339.50;;;;;;;9.94;100.00;99331.20;213995;1286;140872;-84
2024/03/25 13:14:23;;;;;;;354.40;330.30;;;;;;;10.10;100.00;99334.44;214582;1283;139420;-85
2024/03/25 13:19:24;;;;;;;440.90;410.60;;;;;;;10.19;100.00;99338.25;213977;1286;140643;-85
2024/03/25 13:24:24;;;;;;;212.30;199.40;;;;;;;10.26;100.00;99340.73;214536;1282;99321;-84
2024/03/25 13:29:24;;;;;;;312.80;291.70;;;;;;;10.26;100.00;99344.19;213960;1284;140785;-84
2024/03/25 13:34:25;;;;;;;204.80;192.10;;;;;;;10.27;100.00;99340.90;215806;1286;139646;-84
2024/03/25 13:39:25;;;;;;;307.00;287.30;;;;;;;10.19;100.00;99341.23;214003;1283;142939;-84
2024/03/25 13:44:26;;;;;;;367.00;342.90;;;;;;;10.22;100.00;99342.25;214441;1285;140928;-84
2024/03/25 13:49:26;;;;;;;184.10;173.10;;;;;;;10.21;100.00;99343.90;213999;1285;140491;-84
2024/03/25 13:54:27;;;;;;;327.90;306.50;;;;;;;10.14;100.00;99347.47;214555;1287;100751;-84
2024/03/25 13:59:27;;;;;;;386.60;360.90;;;;;;;10.11;100.00;99348.91;214023;1282;141004;-85
2024/03/25 14:04:28;;;;;;;480.90;446.80;;;;;;;10.11;100.00;99351.65;214455;1283;139364;-85
2024/03/25 14:09:28;;;;;;;344.20;322.70;;;;;;;10.10;100.00;99348.20;214005;1282;140417;-85
2024/03/25 14:14:29;;;;;;;400.20;374.10;;;;;;;10.08;100.00;99342.79;214268;1282;139615;-84
2024/03/25 14:19:30;;;;;;;302.60;284.20;;;;;;;10.14;100.00;99343.70;213888;1282;141329;-84
2024/03/25 14:24:30;;;;;;;91.80;86.50;;;;;;;10.21;100.00;99345.63;214553;1282;99386;-83
2024/03/25 14:29:30;;;;;;;407.90;381.40;;;;;;;10.20;100.00;99354.13;213845;1285;140355;-84
2024/03/25 14:34:32;;;;;;;241.70;227.30;;;;;;;10.16;100.00;99358.54;214961;1282;139719;-84
2024/03/25 14:39:32;;;;;;;324.50;305.40;;;;;;;10.20;100.00;99356.33;213827;1282;141988;-84
2024/03/25 14:44:33;;;;;;;378.60;355.00;;;;;;;10.15;100.00;99362.38;214257;1284;139845;-84
2024/03/25 14:49:33;;;;;;;382.10;357.80;;;;;;;10.08;100.00;99371.69;213752;1281;142126;-84
2024/03/25 14:54:35;;;;;;;431.90;403.10;;;;;;;10.10;100.00;99377.73;214371;1282;99331;-84
2024/03/25 14:59:35;;;;;;;333.00;311.20;;;;;;;10.12;100.00;99383.61;213806;1283;140731;-84
2024/03/25 15:04:36;;;;;;;390.20;366.50;;;;;;;10.08;100.00;99385.27;214500;1282;139433;-84
2024/03/25 15:09:37;;;;;;;222.80;209.90;;;;;;;10.00;100.00;99389.91;214031;1282;141150;-84
2024/03/25 15:14:38;;;;;;;152.00;143.20;;;;;;;9.90;100.00;99389.70;214663;1282;139694;-84
2024/03/25 15:19:39;;;;;;;77.80;72.70;;;;;;;9.80;100.00;99382.35;214110;1282;140877;-86
2024/03/25 15:24:40;;;;;;;122.00;114.90;;;;;;;9.76;100.00;99381.27;214670;1282;112790;-84
2024/03/25 15:29:40;;;;;;;46.40;43.40;;;;;;;9.71;100.00;99389.05;213723;1285;140279;-84
2024/03/25 15:34:41;;;;;;;211.40;198.30;;;;;;;9.68;100.00;99390.39;215011;1285;139384;-84
2024/03/25 15:39:42;;;;;;;106.60;100.20;;;;;;;9.68;100.00;99394.70;213921;1285;140433;-84
2024/03/25 15:44:42;;;;;;;71.20;67.00;;;;;;;9.68;100.00;99400.36;214464;1287;139342;-84
2024/03/25 15:49:47;;;;;;;48.30;45.20;;;;;;;9.60;100.00;99405.70;213864;1287;140826;-84
2024/03/25 15:54:51;;;;;;;97.50;91.90;;;;;;;9.49;100.00;99408.55;214600;1284;112812;-85
2024/03/25 15:59:51;;;;;;;122.50;115.10;;;;;;;9.35;100.00;99418.98;214324;1282;140098;-84
2024/03/25 16:04:52;;;;;;;67.20;62.80;;;;;;;9.21;100.00;99423.93;214475;1284;139019;-84
2024/03/25 16:09:52;;;;;;;105.50;99.50;;;;;;;9.05;100.00;99428.94;213969;1282;139933;-84
2024/03/25 16:14:54;;;;;;;95.60;89.80;;;;;;;8.93;100.00;99434.33;214262;1285;139486;-83
2024/03/25 16:19:54;;;;;;;90.40;85.00;;;;;;;8.84;100.00;99436.52;214050;1282;140084;-83
2024/03/25 16:24:55;;;;;;;79.60;75.00;;;;;;;8.77;100.00;99436.09;214495;1282;139010;-83
2024/03/25 16:29:55;;;;;;;94.60;89.30;;;;;;;8.67;100.00;99441.33;214018;1284;140029;-84
2024/03/25 16:34:56;;;;;;;24.60;22.70;;;;;;;8.51;100.00;99440.64;215094;1283;139479;-84
2024/03/25 16:39:57;;;;;;;26.10;24.20;;;;;;;8.40;100.00;99443.36;214060;1282;139957;-82
2024/03/25 16:44:59;;;;;;;32.30;29.90;;;;;;;8.28;100.00;99447.52;214544;1285;139479;-83
2024/03/25 16:50:00;;;;;;;18.20;15.80;;;;;;;8.21;100.00;99453.27;214128;1288;140115;-84
2024/03/25 16:55:00;;;;;;;14.70;12.00;;;;;;;8.09;100.00;99461.65;214614;1288;140309;-85
2024/03/25 17:00:03;;;;;;;25.80;23.80;;;;;;;8.02;100.00;99466.39;214398;1282;139990;-83
2024/03/25 17:05:05;;;;;;;9.30;4.70;;;;;;;7.97;100.00;99478.11;214633;1285;138698;-84
2024/03/25 17:10:08;;;;;;;8.40;4.90;;;;;;;7.82;100.00;99482.30;213890;1283;139874;-83
2024/03/25 17:15:09;;;;;;;13.70;12.40;;;;;;;7.72;100.00;99480.36;214472;1282;138662;-83
2024/03/25 17:20:10;;;;;;;9.90;8.10;;;;;;;7.66;100.00;99487.45;213958;1282;140145;-83
2024/03/25 17:25:10;;;;;;;10.50;7.30;;;;;;;7.65;100.00;99494.63;214713;1287;139237;-84
2024/03/25 17:30:12;;;;;;;11.70;5.20;;;;;;;7.62;100.00;99499.70;214383;1283;140646;-83
2024/03/25 17:35:12;;;;;;;13.10;6.50;;;;;;;7.60;100.00;99506.00;214980;1287;139127;-83
2024/03/25 17:40:13;;;;;;;13.70;5.80;;;;;;;7.52;100.00;99507.34;213920;1283;140036;-83
2024/03/25 17:45:13;;;;;;;10.10;5.00;;;;;;;7.40;100.00;99509.98;214669;1282;138663;-83
2024/03/25 17:50:15;;;;;;;11.80;5.90;;;;;;;7.30;100.00;99514.58;214239;1288;139845;-87
2024/03/25 17:55:17;;;;;;;10.50;4.90;;;;;;;7.21;100.00;99517.85;214481;1282;139159;-85
2024/03/25 18:00:17;;;;;;;9.30;4.10;;;;;;;7.11;100.00;99520.56;214406;1285;140084;-84
2024/03/25 18:05:18;;;;;;;11.30;5.40;;;;;;;7.00;100.00;99527.98;214477;1286;138478;-84
2024/03/25 18:10:18;;;;;;;12.80;5.90;;;;;;;6.88;100.00;99532.98;214112;1286;140657;-85
2024/03/25 18:15:19;;;;;;;12.70;6.30;;;;;;;6.77;100.00;99538.86;214733;1282;138747;-85
2024/03/25 18:20:19;;;;;;;11.60;6.00;;;;;;;6.62;100.00;99544.79;214436;1288;140959;-85
2024/03/25 18:25:19;;;;;;;16.20;7.50;;;;;;;6.47;100.00;99545.23;215258;1286;139134;-85
2024/03/25 18:30:20;;;;;;;13.70;8.30;;;;;;;6.31;100.00;99546.79;214622;1288;140133;-85
2024/03/25 18:35:20;;;;;;;19.40;10.90;;;;;;;6.19;100.00;99551.14;215341;1285;139217;-85
2024/03/25 18:40:21;;;;;;;20.00;10.80;;;;;;;6.09;100.00;99550.62;214018;1288;141379;-86
2024/03/25 18:45:26;;;;;;;22.00;10.70;;;;;;;6.02;100.00;99552.14;214651;1288;139161;-85
2024/03/25 18:50:27;;;;;;;20.90;10.90;;;;;;;5.95;100.00;99549.31;214156;1286;140006;-86
2024/03/25 18:55:27;;;;;;;21.00;11.00;;;;;;;5.92;100.00;99545.98;214417;1286;138885;-85
2024/03/25 19:00:28;;;;;;;20.30;10.10;;;;;;;5.85;100.00;99547.97;213877;1282;140204;-85
2024/03/25 19:05:28;;;;;;;18.30;8.90;;;;;;;5.78;100.00;99547.01;214640;1282;139236;-85
2024/03/25 19:10:30;;;;;;;17.10;9.00;;;;;;;5.70;100.00;99549.29;213756;1282;139949;-84
2024/03/25 19:15:31;;;;;;;18.80;10.10;;;;;;;5.62;100.00;99554.69;214464;1286;138859;-84
2024/03/25 19:20:31;;;;;;;21.20;10.80;;;;;;;5.58;100.00;99558.90;214057;1285;139815;-85
2024/03/25 19:25:32;;;;;;;24.80;13.00;;;;;;;5.54;100.00;99563.98;214822;1286;139161;-86
2024/03/25 19:30:32;;;;;;;20.50;11.30;;;;;;;5.50;100.00;99564.45;214395;1284;140411;-83
2024/03/25 19:35:33;;;;;;;22.80;10.70;;;;;;;5.42;100.00;99563.91;215351;1286;139136;-86
2024/03/25 19:40:34;;;;;;;20.60;10.90;;;;;;;5.35;100.00;99569.33;214230;1288;140968;-84
2024/03/25 19:45:35;;;;;;;21.20;10.20;;;;;;;5.29;100.00;99569.77;214663;1286;139040;-85
2024/03/25 19:50:35;;;;;;;23.30;13.00;;;;;;;5.24;100.00;99569.42;214244;1283;140238;-85
2024/03/25 19:55:36;;;;;;;41.20;22.40;;;;;;;5.14;100.00;99572.05;214726;1288;139198;-85
2024/03/25 20:00:37;;;;;;;33.40;16.80;;;;;;;5.07;100.00;99572.73;214186;1283;140015;-85
2024/03/25 20:05:37;;;;;;;26.60;14.50;;;;;;;4.99;100.00;99577.45;214740;1282;139627;-84
2024/03/25 20:10:38;;;;;;;25.20;13.70;;;;;;;4.90;100.00;99579.62;214460;1285;140056;-85
2024/03/25 20:15:38;;;;;;;26.90;13.50;;;;;;;4.76;100.00;99585.46;215050;1285;139051;-85
2024/03/25 20:20:39;;;;;;;22.60;10.50;;;;;;;4.66;100.00;99586.69;214336;1284;140151;-85
2024/03/25 20:25:43;;;;;;;21.70;11.30;;;;;;;4.56;100.00;99591.29;215044;1282;138878;-85
2024/03/25 20:30:44;;;;;;;22.00;12.40;;;;;;;4.46;100.00;99599.87;214686;1288;140259;-85
2024/03/25 20:35:44;;;;;;;22.30;11.00;;;;;;;4.31;100.00;99600.94;215448;1286;138819;-85
2024/03/25 20:40:45;;;;;;;23.80;11.50;;;;;;;4.18;100.00;99597.45;214609;1285;140193;-86
2024/03/25 20:45:45;;;;;;;23.70;13.10;;;;;;;4.09;100.00;99598.98;215107;1282;138879;-86
2024/03/25 20:50:46;;;;;;;21.40;12.20;;;;;;;4.02;100.00;99604.61;214649;1283;140228;-86
2024/03/25 20:55:46;;;;;;;22.90;12.50;;;;;;;3.93;100.00;99610.85;214915;1287;139136;-84
2024/03/25 21:00:47;;;;;;;23.50;12.30;;;;;;;3.80;100.00;99604.54;214684;1285;140406;-84
2024/03/25 21:05:57;;;;;;;23.90;12.90;;;;;;;3.70;100.00;99606.48;214893;1283;138698;-85
2024/03/25 21:10:58;;;;;;;25.50;13.60;;;;;;;3.60;100.00;99612.45;214477;1285;140314;-84
2024/03/25 21:15:59;;;;;;;25.20;14.80;;;;;;;3.51;100.00;99601.33;215050;1283;138877;-85
2024/03/25 21:21:00;;;;;;;24.90;13.00;;;;;;;3.41;100.00;99596.79;214578;1296;139875;-85
2024/03/25 21:26:00;;;;;;;25.70;13.60;;;;;;;3.27;100.00;99598.84;215073;1292;139057;-85
2024/03/25 21:31:01;;;;;;;26.00;13.40;;;;;;;3.23;100.00;99597.01;214420;1283;140934;-85
2024/03/25 21:36:02;;;;;;;28.40;14.30;;;;;;;3.20;100.00;99603.77;215374;1283;99343;-84
2024/03/25 21:41:03;;;;;;;24.40;13.40;;;;;;;3.14;100.00;99609.03;214504;1285;140133;-84
2024/03/25 21:46:03;;;;;;;24.60;12.10;;;;;;;3.06;100.00;99612.88;215082;1286;139086;-85
2024/03/25 21:51:04;;;;;;;24.80;13.20;;;;;;;2.97;100.00;99615.73;214459;1285;141510;-85
2024/03/25 21:56:05;;;;;;;24.40;13.40;;;;;;;2.88;100.00;99618.34;215094;1286;234606;-83
2024/03/25 22:01:05;;;;;;;29.40;13.50;;;;;;;2.78;100.00;99624.02;214276;1287;140462;-84
2024/03/25 22:06:06;;;;;;;35.10;15.80;;;;;;;2.69;100.00;99630.52;215077;1282;99837;-84
2024/03/25 22:11:06;;;;;;;40.80;16.20;;;;;;;2.66;100.00;99634.62;214533;1283;141234;-83
2024/03/25 22:16:07;;;;;;;54.60;21.90;;;;;;;2.59;100.00;99637.29;215071;1286;139168;-84
2024/03/25 22:21:07;;;;;;;69.40;26.10;;;;;;;2.51;100.00;99641.16;214570;1283;140377;-83
2024/03/25 22:26:08;;;;;;;53.30;22.00;;;;;;;2.47;100.00;99644.20;215349;1285;138920;-84
2024/03/25 22:31:08;;;;;;;129.40;47.90;;;;;;;2.42;100.00;99642.89;215127;1283;140442;-83
2024/03/25 22:36:08;;;;;;;397.10;136.10;;;;;;;2.39;100.00;99644.89;215905;1285;99221;-82
2024/03/25 22:41:09;;;;;;;312.90;110.20;;;;;;;2.38;100.00;99650.14;215339;1285;140048;-81